sensor_id;sensor_type;location;lat;lon;timestamp;pressure;altitude;pressure_sealevel;temperature;humidity
54389;BME280;40975;50.390;8.640;2022-09-24T00:01:48;98856.66;;;8.86;100.00
54389;BME280;40975;50.390;8.640;2022-09-24T00:04:15;98845.63;;;8.91;100.00
54389;BME280;40975;50.390;8.640;2022-09-24T00:06:42;98844.78;;;8.91;100.00
54389;BME280;40975;50.390;8.640;2022-09-24T00:09:10;98850.94;;;8.91;100.00
54389;BME280;40975;50.390;8.640;2022-09-24T00:11:37;98843.69;;;8.93;100.00
54389;BME280;40975;50.390;8.640;2022-09-24T00:14:02;98847.97;;;8.94;100.00
54389;BME280;40975;50.390;8.640;2022-09-24T00:16:29;98849.66;;;8.95;100.00
54389;BME280;40975;50.390;8.640;2022-09-24T00:18:55;98843.53;;;8.95;100.00
54389;BME280;40975;50.390;8.640;2022-09-24T00:21:24;98851.19;;;8.98;100.00
54389;BME280;40975;50.390;8.640;2022-09-24T00:24:01;98842.25;;;8.99;100.00
54389;BME280;40975;50.390;8.640;2022-09-24T00:26:27;98838.09;;;8.96;100.00
54389;BME280;40975;50.390;8.640;2022-09-24T00:29:13;98841.00;;;9.03;100.00
54389;BME280;40975;50.390;8.640;2022-09-24T00:31:40;98832.09;;;9.04;100.00
54389;BME280;40975;50.390;8.640;2022-09-24T00:34:05;98837.91;;;9.08;100.00
54389;BME280;40975;50.390;8.640;2022-09-24T00:36:31;98833.47;;;9.08;100.00
54389;BME280;40975;50.390;8.640;2022-09-24T00:38:57;98823.00;;;9.07;100.00
54389;BME280;40975;50.390;8.640;2022-09-24T00:41:29;98818.00;;;9.03;100.00
54389;BME280;40975;50.390;8.640;2022-09-24T00:43:55;98822.44;;;9.13;100.00
54389;BME280;40975;50.390;8.640;2022-09-24T00:46:26;98819.66;;;9.14;100.00
54389;BME280;40975;50.390;8.640;2022-09-24T00:48:57;98822.31;;;9.14;100.00
54389;BME280;40975;50.390;8.640;2022-09-24T00:51:26;98823.53;;;9.20;100.00
54389;BME280;40975;50.390;8.640;2022-09-24T00:53:56;98826.47;;;9.17;100.00
54389;BME280;40975;50.390;8.640;2022-09-24T00:56:23;98817.81;;;9.15;100.00
54389;BME280;40975;50.390;8.640;2022-09-24T00:58:52;98818.69;;;9.15;100.00
54389;BME280;40975;50.390;8.640;2022-09-24T01:01:20;98810.84;;;9.14;100.00
54389;BME280;40975;50.390;8.640;2022-09-24T01:03:48;98812.53;;;9.15;100.00
54389;BME280;40975;50.390;8.640;2022-09-24T01:06:14;98814.78;;;9.10;100.00
54389;BME280;40975;50.390;8.640;2022-09-24T01:08:41;98808.81;;;9.08;100.00
54389;BME280;40975;50.390;8.640;2022-09-24T01:16:51;98816.34;;;9.02;100.00
54389;BME280;40975;50.390;8.640;2022-09-24T01:25:02;98811.22;;;8.91;100.00
54389;BME280;40975;50.390;8.640;2022-09-24T01:30:22;98804.28;;;8.80;100.00
54389;BME280;40975;50.390;8.640;2022-09-24T01:32:52;98806.25;;;8.68;100.00
54389;BME280;40975;50.390;8.640;2022-09-24T01:35:33;98794.16;;;8.66;100.00
54389;BME280;40975;50.390;8.640;2022-09-24T01:38:03;98800.84;;;8.60;100.00
54389;BME280;40975;50.390;8.640;2022-09-24T01:40:31;98794.31;;;8.54;100.00
54389;BME280;40975;50.390;8.640;2022-09-24T01:42:58;98790.97;;;8.52;100.00
54389;BME280;40975;50.390;8.640;2022-09-24T01:45:26;98784.16;;;8.50;100.00
54389;BME280;40975;50.390;8.640;2022-09-24T01:47:58;98779.25;;;8.45;100.00
54389;BME280;40975;50.390;8.640;2022-09-24T01:50:25;98780.38;;;8.43;100.00
54389;BME280;40975;50.390;8.640;2022-09-24T01:52:57;98778.97;;;8.38;100.00
54389;BME280;40975;50.390;8.640;2022-09-24T01:55:26;98767.00;;;8.34;100.00
54389;BME280;40975;50.390;8.640;2022-09-24T01:57:58;98773.56;;;8.30;100.00
54389;BME280;40975;50.390;8.640;2022-09-24T02:00:26;98765.09;;;8.27;100.00
54389;BME280;40975;50.390;8.640;2022-09-24T02:03:05;98764.94;;;8.28;100.00
54389;BME280;40975;50.390;8.640;2022-09-24T02:05:49;98764.81;;;8.20;100.00
54389;BME280;40975;50.390;8.640;2022-09-24T02:08:20;98763.84;;;8.21;100.00
54389;BME280;40975;50.390;8.640;2022-09-24T02:10:53;98760.91;;;8.24;100.00
54389;BME280;40975;50.390;8.640;2022-09-24T02:13:24;98760.34;;;8.20;100.00
54389;BME280;40975;50.390;8.640;2022-09-24T02:15:54;98746.03;;;8.23;100.00
54389;BME280;40975;50.390;8.640;2022-09-24T02:18:23;98748.94;;;8.20;100.00
54389;BME280;40975;50.390;8.640;2022-09-24T02:20:50;98753.28;;;8.21;100.00
54389;BME280;40975;50.390;8.640;2022-09-24T02:23:17;98754.94;;;8.22;100.00
54389;BME280;40975;50.390;8.640;2022-09-24T02:25:49;98753.28;;;8.21;100.00
54389;BME280;40975;50.390;8.640;2022-09-24T02:28:17;98748.25;;;8.18;100.00
54389;BME280;40975;50.390;8.640;2022-09-24T02:30:47;98755.63;;;8.14;100.00
54389;BME280;40975;50.390;8.640;2022-09-24T02:33:14;98749.50;;;8.04;100.00
54389;BME280;40975;50.390;8.640;2022-09-24T02:35:59;98760.91;;;8.04;100.00
54389;BME280;40975;50.390;8.640;2022-09-24T02:38:25;98759.25;;;8.03;100.00
54389;BME280;40975;50.390;8.640;2022-09-24T02:40:50;98758.69;;;8.00;100.00
54389;BME280;40975;50.390;8.640;2022-09-24T02:43:17;98759.38;;;8.02;100.00
54389;BME280;40975;50.390;8.640;2022-09-24T02:45:42;98754.94;;;8.02;100.00
54389;BME280;40975;50.390;8.640;2022-09-24T02:48:07;98742.81;;;8.00;100.00
54389;BME280;40975;50.390;8.640;2022-09-24T02:50:33;98737.84;;;7.97;100.00
54389;BME280;40975;50.390;8.640;2022-09-24T02:52:58;98741.88;;;7.91;100.00
54389;BME280;40975;50.390;8.640;2022-09-24T02:55:23;98748.13;;;7.90;100.00
54389;BME280;40975;50.390;8.640;2022-09-24T02:57:49;98737.41;;;7.82;100.00
54389;BME280;40975;50.390;8.640;2022-09-24T03:00:14;98744.19;;;7.74;100.00
54389;BME280;40975;50.390;8.640;2022-09-24T03:02:40;98743.53;;;7.72;100.00
54389;BME280;40975;50.390;8.640;2022-09-24T03:05:05;98751.56;;;7.71;100.00
54389;BME280;40975;50.390;8.640;2022-09-24T03:07:31;98743.25;;;7.66;100.00
54389;BME280;40975;50.390;8.640;2022-09-24T03:09:56;98746.16;;;7.62;100.00
54389;BME280;40975;50.390;8.640;2022-09-24T03:12:21;98741.84;;;7.61;100.00
54389;BME280;40975;50.390;8.640;2022-09-24T03:14:47;98738.78;;;7.56;100.00
54389;BME280;40975;50.390;8.640;2022-09-24T03:17:12;98744.47;;;7.52;100.00
54389;BME280;40975;50.390;8.640;2022-09-24T03:19:37;98739.31;;;7.50;100.00
54389;BME280;40975;50.390;8.640;2022-09-24T03:22:03;98740.56;;;7.46;100.00
54389;BME280;40975;50.390;8.640;2022-09-24T03:24:28;98741.69;;;7.43;100.00
54389;BME280;40975;50.390;8.640;2022-09-24T03:26:54;98753.22;;;7.42;100.00
54389;BME280;40975;50.390;8.640;2022-09-24T03:29:19;98747.63;;;7.36;100.00
54389;BME280;40975;50.390;8.640;2022-09-24T03:32:04;98740.41;;;7.38;100.00
54389;BME280;40975;50.390;8.640;2022-09-24T03:34:30;98745.09;;;7.34;100.00
54389;BME280;40975;50.390;8.640;2022-09-24T03:36:55;98749.00;;;7.30;100.00
54389;BME280;40975;50.390;8.640;2022-09-24T03:39:20;98743.88;;;7.28;100.00
54389;BME280;40975;50.390;8.640;2022-09-24T03:41:45;98745.50;;;7.29;100.00
54389;BME280;40975;50.390;8.640;2022-09-24T03:44:11;98743.56;;;7.22;100.00
54389;BME280;40975;50.390;8.640;2022-09-24T03:46:36;98739.97;;;7.23;100.00
54389;BME280;40975;50.390;8.640;2022-09-24T03:49:01;98748.41;;;7.16;100.00
54389;BME280;40975;50.390;8.640;2022-09-24T03:51:27;98746.88;;;7.14;100.00
54389;BME280;40975;50.390;8.640;2022-09-24T03:53:52;98742.94;;;7.08;100.00
54389;BME280;40975;50.390;8.640;2022-09-24T03:56:17;98746.81;;;7.04;100.00
54389;BME280;40975;50.390;8.640;2022-09-24T03:58:43;98741.13;;;6.99;100.00
54389;BME280;40975;50.390;8.640;2022-09-24T04:01:11;98737.94;;;7.05;100.00
54389;BME280;40975;50.390;8.640;2022-09-24T04:03:38;98733.91;;;7.01;100.00
54389;BME280;40975;50.390;8.640;2022-09-24T04:06:04;98720.41;;;6.94;100.00
54389;BME280;40975;50.390;8.640;2022-09-24T04:08:30;98718.75;;;6.93;100.00
54389;BME280;40975;50.390;8.640;2022-09-24T04:10:56;98723.03;;;6.94;100.00
54389;BME280;40975;50.390;8.640;2022-09-24T04:13:21;98727.63;;;6.92;100.00
54389;BME280;40975;50.390;8.640;2022-09-24T04:15:46;98721.06;;;6.87;100.00
54389;BME280;40975;50.390;8.640;2022-09-24T04:18:14;98728.97;;;6.87;100.00
54389;BME280;40975;50.390;8.640;2022-09-24T04:20:40;98727.75;;;6.91;100.00
54389;BME280;40975;50.390;8.640;2022-09-24T04:23:06;98717.22;;;6.91;100.00
54389;BME280;40975;50.390;8.640;2022-09-24T04:25:31;98720.66;;;6.91;100.00
54389;BME280;40975;50.390;8.640;2022-09-24T04:28:00;98708.19;;;6.93;100.00
54389;BME280;40975;50.390;8.640;2022-09-24T04:30:28;98709.69;;;6.86;100.00
54389;BME280;40975;50.390;8.640;2022-09-24T04:32:53;98704.69;;;6.83;100.00
54389;BME280;40975;50.390;8.640;2022-09-24T04:35:20;98700.25;;;6.83;100.00
54389;BME280;40975;50.390;8.640;2022-09-24T04:37:46;98704.66;;;6.73;100.00
54389;BME280;40975;50.390;8.640;2022-09-24T04:40:13;98701.72;;;6.76;100.00
54389;BME280;40975;50.390;8.640;2022-09-24T04:42:39;98707.28;;;6.73;100.00
54389;BME280;40975;50.390;8.640;2022-09-24T04:45:08;98708.81;;;6.76;100.00
54389;BME280;40975;50.390;8.640;2022-09-24T04:47:35;98706.88;;;6.78;100.00
54389;BME280;40975;50.390;8.640;2022-09-24T04:50:01;98704.38;;;6.76;100.00
54389;BME280;40975;50.390;8.640;2022-09-24T04:52:29;98705.88;;;6.69;100.00
54389;BME280;40975;50.390;8.640;2022-09-24T04:54:57;98714.59;;;6.69;100.00
54389;BME280;40975;50.390;8.640;2022-09-24T04:57:24;98702.78;;;6.64;100.00
54389;BME280;40975;50.390;8.640;2022-09-24T04:59:49;98709.47;;;6.68;100.00
54389;BME280;40975;50.390;8.640;2022-09-24T05:02:15;98707.38;;;6.62;100.00
54389;BME280;40975;50.390;8.640;2022-09-24T05:04:41;98699.72;;;6.59;100.00
54389;BME280;40975;50.390;8.640;2022-09-24T05:07:08;98705.69;;;6.61;100.00
54389;BME280;40975;50.390;8.640;2022-09-24T05:09:33;98708.59;;;6.58;100.00
54389;BME280;40975;50.390;8.640;2022-09-24T05:11:59;98714.66;;;6.48;100.00
54389;BME280;40975;50.390;8.640;2022-09-24T05:14:25;98715.84;;;6.44;100.00
54389;BME280;40975;50.390;8.640;2022-09-24T05:16:51;98719.50;;;6.43;100.00
54389;BME280;40975;50.390;8.640;2022-09-24T05:19:16;98718.50;;;6.44;100.00
54389;BME280;40975;50.390;8.640;2022-09-24T05:21:42;98722.69;;;6.47;100.00
54389;BME280;40975;50.390;8.640;2022-09-24T05:24:07;98718.38;;;6.46;100.00
54389;BME280;40975;50.390;8.640;2022-09-24T05:26:32;98715.84;;;6.44;100.00
54389;BME280;40975;50.390;8.640;2022-09-24T05:29:17;98712.16;;;6.47;100.00
54389;BME280;40975;50.390;8.640;2022-09-24T05:31:42;98717.75;;;6.53;100.00
54389;BME280;40975;50.390;8.640;2022-09-24T05:34:08;98708.44;;;6.59;100.00
54389;BME280;40975;50.390;8.640;2022-09-24T05:36:33;98712.50;;;6.63;100.00
54389;BME280;40975;50.390;8.640;2022-09-24T05:38:58;98719.06;;;6.69;100.00
54389;BME280;40975;50.390;8.640;2022-09-24T05:41:23;98720.47;;;6.73;100.00
54389;BME280;40975;50.390;8.640;2022-09-24T05:43:49;98728.94;;;6.77;100.00
54389;BME280;40975;50.390;8.640;2022-09-24T05:46:15;98729.94;;;6.85;100.00
54389;BME280;40975;50.390;8.640;2022-09-24T05:48:40;98727.75;;;6.91;100.00
54389;BME280;40975;50.390;8.640;2022-09-24T05:51:05;98726.09;;;6.90;100.00
54389;BME280;40975;50.390;8.640;2022-09-24T05:53:31;98736.66;;;6.99;100.00
54389;BME280;40975;50.390;8.640;2022-09-24T05:55:56;98739.34;;;7.09;100.00
54389;BME280;40975;50.390;8.640;2022-09-24T05:58:23;98733.53;;;7.15;100.00
54389;BME280;40975;50.390;8.640;2022-09-24T06:00:49;98734.69;;;7.23;100.00
54389;BME280;40975;50.390;8.640;2022-09-24T06:03:16;98737.06;;;7.36;100.00
54389;BME280;40975;50.390;8.640;2022-09-24T06:05:45;98738.75;;;7.46;100.00
54389;BME280;40975;50.390;8.640;2022-09-24T06:08:13;98744.63;;;7.60;100.00
54389;BME280;40975;50.390;8.640;2022-09-24T06:10:40;98735.88;;;7.69;100.00
54389;BME280;40975;50.390;8.640;2022-09-24T06:13:07;98745.47;;;7.90;100.00
54389;BME280;40975;50.390;8.640;2022-09-24T06:15:32;98741.31;;;7.97;100.00
54389;BME280;40975;50.390;8.640;2022-09-24T06:17:59;98739.22;;;8.11;100.00
54389;BME280;40975;50.390;8.640;2022-09-24T06:20:24;98741.41;;;8.25;100.00
54389;BME280;40975;50.390;8.640;2022-09-24T06:22:49;98744.59;;;8.38;100.00
54389;BME280;40975;50.390;8.640;2022-09-24T06:25:15;98742.53;;;8.52;100.00
54389;BME280;40975;50.390;8.640;2022-09-24T06:27:40;98738.88;;;8.63;100.00
54389;BME280;40975;50.390;8.640;2022-09-24T06:30:06;98747.19;;;8.78;100.00
54389;BME280;40975;50.390;8.640;2022-09-24T06:32:31;98744.66;;;8.86;100.00
54389;BME280;40975;50.390;8.640;2022-09-24T06:34:57;98742.25;;;8.93;100.00
54389;BME280;40975;50.390;8.640;2022-09-24T06:37:22;98742.91;;;9.05;100.00
54389;BME280;40975;50.390;8.640;2022-09-24T06:39:47;98744.28;;;9.09;100.00
54389;BME280;40975;50.390;8.640;2022-09-24T06:42:13;98742.28;;;9.21;100.00
54389;BME280;40975;50.390;8.640;2022-09-24T06:44:38;98741.06;;;9.43;100.00
54389;BME280;40975;50.390;8.640;2022-09-24T06:47:04;98744.84;;;9.58;100.00
54389;BME280;40975;50.390;8.640;2022-09-24T06:49:29;98750.94;;;9.69;100.00
54389;BME280;40975;50.390;8.640;2022-09-24T06:51:54;98754.56;;;9.68;100.00
54389;BME280;40975;50.390;8.640;2022-09-24T06:54:21;98760.91;;;9.75;100.00
54389;BME280;40975;50.390;8.640;2022-09-24T06:56:47;98756.09;;;9.88;100.00
54389;BME280;40975;50.390;8.640;2022-09-24T06:59:12;98754.50;;;9.95;100.00
54389;BME280;40975;50.390;8.640;2022-09-24T07:01:38;98749.13;;;10.05;100.00
54389;BME280;40975;50.390;8.640;2022-09-24T07:04:03;98740.78;;;10.18;100.00
54389;BME280;40975;50.390;8.640;2022-09-24T07:06:28;98740.16;;;10.24;100.00
54389;BME280;40975;50.390;8.640;2022-09-24T07:09:14;98748.13;;;10.42;100.00
54389;BME280;40975;50.390;8.640;2022-09-24T07:11:39;98744.75;;;10.58;100.00
54389;BME280;40975;50.390;8.640;2022-09-24T07:14:05;98738.41;;;10.78;100.00
54389;BME280;40975;50.390;8.640;2022-09-24T07:16:30;98741.47;;;10.99;100.00
54389;BME280;40975;50.390;8.640;2022-09-24T07:18:56;98731.78;;;11.25;100.00
54389;BME280;40975;50.390;8.640;2022-09-24T07:21:22;98742.53;;;11.58;100.00
54389;BME280;40975;50.390;8.640;2022-09-24T07:23:47;98742.25;;;11.77;100.00
54389;BME280;40975;50.390;8.640;2022-09-24T07:26:12;98748.91;;;11.90;100.00
54389;BME280;40975;50.390;8.640;2022-09-24T07:28:38;98759.91;;;12.03;100.00
54389;BME280;40975;50.390;8.640;2022-09-24T07:31:03;98761.53;;;11.96;100.00
54389;BME280;40975;50.390;8.640;2022-09-24T07:33:30;98762.22;;;11.90;100.00
54389;BME280;40975;50.390;8.640;2022-09-24T07:35:55;98767.84;;;11.95;100.00
54389;BME280;40975;50.390;8.640;2022-09-24T07:38:21;98769.06;;;12.09;100.00
54389;BME280;40975;50.390;8.640;2022-09-24T07:40:46;98764.41;;;12.19;100.00
54389;BME280;40975;50.390;8.640;2022-09-24T07:43:11;98759.63;;;12.31;100.00
54389;BME280;40975;50.390;8.640;2022-09-24T07:45:38;98756.28;;;12.62;100.00
54389;BME280;40975;50.390;8.640;2022-09-24T07:48:04;98757.78;;;13.13;100.00
54389;BME280;40975;50.390;8.640;2022-09-24T07:50:33;98755.72;;;13.40;100.00
54389;BME280;40975;50.390;8.640;2022-09-24T07:52:59;98765.84;;;13.76;100.00
54389;BME280;40975;50.390;8.640;2022-09-24T07:55:25;98770.25;;;13.92;100.00
54389;BME280;40975;50.390;8.640;2022-09-24T07:57:53;98775.25;;;13.63;100.00
54389;BME280;40975;50.390;8.640;2022-09-24T08:00:20;98775.22;;;13.32;100.00
54389;BME280;40975;50.390;8.640;2022-09-24T08:02:46;98770.25;;;13.20;100.00
54389;BME280;40975;50.390;8.640;2022-09-24T08:05:12;98767.78;;;13.19;100.00
54389;BME280;40975;50.390;8.640;2022-09-24T08:07:39;98770.41;;;13.27;100.00
54389;BME280;40975;50.390;8.640;2022-09-24T08:10:05;98771.63;;;13.56;100.00
54389;BME280;40975;50.390;8.640;2022-09-24T08:12:30;98771.03;;;13.77;100.00
54389;BME280;40975;50.390;8.640;2022-09-24T08:14:55;98776.53;;;13.99;100.00
54389;BME280;40975;50.390;8.640;2022-09-24T08:17:21;98773.19;;;14.28;100.00
54389;BME280;40975;50.390;8.640;2022-09-24T08:19:46;98777.00;;;14.03;100.00
54389;BME280;40975;50.390;8.640;2022-09-24T08:22:12;98769.78;;;13.88;100.00
54389;BME280;40975;50.390;8.640;2022-09-24T08:24:39;98769.75;;;13.65;100.00
54389;BME280;40975;50.390;8.640;2022-09-24T08:27:04;98774.88;;;13.35;100.00
54389;BME280;40975;50.390;8.640;2022-09-24T08:29:29;98774.41;;;13.31;100.00
54389;BME280;40975;50.390;8.640;2022-09-24T08:31:55;98780.03;;;13.36;100.00
54389;BME280;40975;50.390;8.640;2022-09-24T08:34:20;98777.66;;;13.50;100.00
54389;BME280;40975;50.390;8.640;2022-09-24T08:36:45;98781.28;;;13.89;100.00
54389;BME280;40975;50.390;8.640;2022-09-24T08:39:11;98768.72;;;13.97;100.00
54389;BME280;40975;50.390;8.640;2022-09-24T08:44:18;98777.69;;;14.05;100.00
54389;BME280;40975;50.390;8.640;2022-09-24T08:47:14;98767.09;;;14.35;100.00
54389;BME280;40975;50.390;8.640;2022-09-24T08:49:57;98762.44;;;14.75;100.00
54389;BME280;40975;50.390;8.640;2022-09-24T08:52:32;98771.16;;;16.10;100.00
54389;BME280;40975;50.390;8.640;2022-09-24T08:55:05;98767.31;;;16.70;94.29
54389;BME280;40975;50.390;8.640;2022-09-24T08:57:36;98767.13;;;16.71;94.88
54389;BME280;40975;50.390;8.640;2022-09-24T09:00:02;98767.81;;;18.19;89.02
54389;BME280;40975;50.390;8.640;2022-09-24T09:05:44;98780.63;;;18.44;80.53
54389;BME280;40975;50.390;8.640;2022-09-24T09:11:01;98788.72;;;20.34;75.06
54389;BME280;40975;50.390;8.640;2022-09-24T09:14:19;98790.53;;;21.72;70.49
54389;BME280;40975;50.390;8.640;2022-09-24T09:17:02;98779.09;;;23.62;62.26
54389;BME280;40975;50.390;8.640;2022-09-24T09:19:34;98787.91;;;25.12;59.61
54389;BME280;40975;50.390;8.640;2022-09-24T09:22:12;98785.72;;;26.25;52.85
54389;BME280;40975;50.390;8.640;2022-09-24T09:24:47;98787.03;;;25.95;52.11
54389;BME280;40975;50.390;8.640;2022-09-24T09:27:14;98787.16;;;24.77;54.73
54389;BME280;40975;50.390;8.640;2022-09-24T09:29:46;98788.38;;;22.77;61.24
54389;BME280;40975;50.390;8.640;2022-09-24T09:38:20;98781.81;;;25.88;51.74
54389;BME280;40975;50.390;8.640;2022-09-24T09:40:55;98777.03;;;24.90;48.67
54389;BME280;40975;50.390;8.640;2022-09-24T09:43:23;98773.50;;;24.72;52.29
54389;BME280;40975;50.390;8.640;2022-09-24T09:48:18;98775.78;;;27.11;43.18
54389;BME280;40975;50.390;8.640;2022-09-24T09:51:01;98772.81;;;27.18;42.96
54389;BME280;40975;50.390;8.640;2022-09-24T09:53:30;98772.53;;;26.39;43.03
54389;BME280;40975;50.390;8.640;2022-09-24T09:56:04;98776.53;;;24.42;49.20
54389;BME280;40975;50.390;8.640;2022-09-24T09:58:32;98773.53;;;25.34;48.72
54389;BME280;40975;50.390;8.640;2022-09-24T10:01:10;98766.53;;;26.75;45.20
54389;BME280;40975;50.390;8.640;2022-09-24T10:06:31;98768.50;;;24.01;48.18
54389;BME280;40975;50.390;8.640;2022-09-24T10:09:16;98778.00;;;22.62;53.81
54389;BME280;40975;50.390;8.640;2022-09-24T10:11:44;98770.63;;;23.58;53.69
54389;BME280;40975;50.390;8.640;2022-09-24T10:14:12;98778.41;;;25.76;48.68
54389;BME280;40975;50.390;8.640;2022-09-24T10:16:43;98781.94;;;26.26;45.43
54389;BME280;40975;50.390;8.640;2022-09-24T10:19:21;98771.06;;;27.02;45.37
54389;BME280;40975;50.390;8.640;2022-09-24T10:21:48;98766.47;;;27.60;43.68
54389;BME280;40975;50.390;8.640;2022-09-24T10:24:18;98766.56;;;23.43;51.43
54389;BME280;40975;50.390;8.640;2022-09-24T10:26:45;98779.22;;;22.90;52.61
54389;BME280;40975;50.390;8.640;2022-09-24T10:29:17;98775.53;;;22.49;51.95
54389;BME280;40975;50.390;8.640;2022-09-24T10:32:05;98758.44;;;22.36;53.41
54389;BME280;40975;50.390;8.640;2022-09-24T10:34:31;98751.38;;;24.80;49.25
54389;BME280;40975;50.390;8.640;2022-09-24T10:37:11;98752.50;;;25.24;48.11
54389;BME280;40975;50.390;8.640;2022-09-24T10:39:37;98752.00;;;25.27;46.00
54389;BME280;40975;50.390;8.640;2022-09-24T10:42:03;98750.81;;;25.89;47.74
54389;BME280;40975;50.390;8.640;2022-09-24T10:44:34;98756.13;;;25.52;47.73
54389;BME280;40975;50.390;8.640;2022-09-24T10:47:15;98756.63;;;25.71;48.75
54389;BME280;40975;50.390;8.640;2022-09-24T10:50:22;98760.22;;;25.76;49.99
54389;BME280;40975;50.390;8.640;2022-09-24T10:52:53;98759.59;;;25.47;46.92
54389;BME280;40975;50.390;8.640;2022-09-24T10:55:52;98753.34;;;24.51;47.85
54389;BME280;40975;50.390;8.640;2022-09-24T10:58:46;98754.25;;;24.40;50.01
54389;BME280;40975;50.390;8.640;2022-09-24T11:03:58;98754.38;;;25.40;51.97
54389;BME280;40975;50.390;8.640;2022-09-24T11:09:44;98742.66;;;24.10;49.18
54389;BME280;40975;50.390;8.640;2022-09-24T11:12:22;98746.16;;;22.52;55.12
54389;BME280;40975;50.390;8.640;2022-09-24T11:15:12;98738.63;;;22.78;55.79
54389;BME280;40975;50.390;8.640;2022-09-24T11:20:38;98735.66;;;21.59;56.89
54389;BME280;40975;50.390;8.640;2022-09-24T11:23:26;98738.72;;;21.44;58.90
54389;BME280;40975;50.390;8.640;2022-09-24T11:26:25;98733.13;;;20.65;62.37
54389;BME280;40975;50.390;8.640;2022-09-24T11:29:20;98726.44;;;20.93;62.26
54389;BME280;40975;50.390;8.640;2022-09-24T11:32:12;98738.38;;;20.60;61.31
54389;BME280;40975;50.390;8.640;2022-09-24T11:40:49;98725.44;;;20.18;62.00
54389;BME280;40975;50.390;8.640;2022-09-24T11:46:46;98708.16;;;20.76;60.48
54389;BME280;40975;50.390;8.640;2022-09-24T11:49:39;98708.78;;;20.78;60.25
54389;BME280;40975;50.390;8.640;2022-09-24T11:52:12;98712.09;;;20.55;60.00
54389;BME280;40975;50.390;8.640;2022-09-24T11:54:46;98715.16;;;20.59;62.54
54389;BME280;40975;50.390;8.640;2022-09-24T11:57:28;98711.59;;;20.40;62.78
54389;BME280;40975;50.390;8.640;2022-09-24T12:00:00;98703.72;;;20.13;60.90
54389;BME280;40975;50.390;8.640;2022-09-24T12:05:44;98708.47;;;20.17;61.66
54389;BME280;40975;50.390;8.640;2022-09-24T12:08:24;98705.16;;;20.15;60.30
54389;BME280;40975;50.390;8.640;2022-09-24T12:11:02;98705.25;;;20.02;58.27
54389;BME280;40975;50.390;8.640;2022-09-24T12:13:37;98695.25;;;20.09;57.26
54389;BME280;40975;50.390;8.640;2022-09-24T12:16:10;98693.22;;;20.04;59.15
54389;BME280;40975;50.390;8.640;2022-09-24T12:21:39;98687.84;;;19.66;62.53
54389;BME280;40975;50.390;8.640;2022-09-24T12:24:34;98678.44;;;19.43;64.02
54389;BME280;40975;50.390;8.640;2022-09-24T12:27:06;98676.41;;;19.38;60.51
54389;BME280;40975;50.390;8.640;2022-09-24T12:29:57;98677.25;;;19.39;61.73
54389;BME280;40975;50.390;8.640;2022-09-24T12:32:48;98673.97;;;19.30;60.83
54389;BME280;40975;50.390;8.640;2022-09-24T12:38:13;98678.06;;;19.39;60.30
54389;BME280;40975;50.390;8.640;2022-09-24T12:44:05;98685.66;;;19.56;59.05
54389;BME280;40975;50.390;8.640;2022-09-24T12:46:44;98678.41;;;19.50;61.04
54389;BME280;40975;50.390;8.640;2022-09-24T12:51:52;98679.47;;;19.42;60.35
54389;BME280;40975;50.390;8.640;2022-09-24T12:54:28;98681.34;;;19.48;61.40
54389;BME280;40975;50.390;8.640;2022-09-24T12:59:53;98679.31;;;19.37;62.09
54389;BME280;40975;50.390;8.640;2022-09-24T13:02:22;98681.13;;;18.91;64.99
54389;BME280;40975;50.390;8.640;2022-09-24T13:05:02;98672.06;;;18.72;65.01
54389;BME280;40975;50.390;8.640;2022-09-24T13:07:33;98667.16;;;18.48;64.80
54389;BME280;40975;50.390;8.640;2022-09-24T13:10:21;98674.19;;;18.43;68.60
54389;BME280;40975;50.390;8.640;2022-09-24T13:12:48;98667.56;;;18.52;67.51
54389;BME280;40975;50.390;8.640;2022-09-24T13:15:24;98672.75;;;18.60;69.13
54389;BME280;40975;50.390;8.640;2022-09-24T13:20:30;98676.69;;;18.44;67.44
54389;BME280;40975;50.390;8.640;2022-09-24T13:22:59;98661.56;;;18.57;69.17
54389;BME280;40975;50.390;8.640;2022-09-24T13:25:36;98660.34;;;18.39;66.24
54389;BME280;40975;50.390;8.640;2022-09-24T13:28:17;98656.00;;;18.52;66.83
54389;BME280;40975;50.390;8.640;2022-09-24T13:30:46;98645.25;;;18.38;66.29
54389;BME280;40975;50.390;8.640;2022-09-24T13:33:29;98658.91;;;18.50;67.64
54389;BME280;40975;50.390;8.640;2022-09-24T13:36:12;98650.03;;;18.29;65.07
54389;BME280;40975;50.390;8.640;2022-09-24T13:38:56;98657.25;;;18.49;67.86
54389;BME280;40975;50.390;8.640;2022-09-24T13:41:44;98654.75;;;18.47;68.04
54389;BME280;40975;50.390;8.640;2022-09-24T13:44:27;98651.47;;;18.39;68.95
54389;BME280;40975;50.390;8.640;2022-09-24T13:47:00;98652.25;;;18.66;68.32
54389;BME280;40975;50.390;8.640;2022-09-24T13:49:29;98652.84;;;18.75;67.25
54389;BME280;40975;50.390;8.640;2022-09-24T13:52:07;98654.00;;;19.06;64.73
54389;BME280;40975;50.390;8.640;2022-09-24T13:54:52;98656.44;;;19.14;65.46
54389;BME280;40975;50.390;8.640;2022-09-24T13:57:23;98646.59;;;18.88;66.61
54389;BME280;40975;50.390;8.640;2022-09-24T13:59:49;98645.81;;;18.67;65.32
54389;BME280;40975;50.390;8.640;2022-09-24T14:02:35;98648.09;;;18.63;67.17
54389;BME280;40975;50.390;8.640;2022-09-24T14:05:02;98647.09;;;18.58;66.07
54389;BME280;40975;50.390;8.640;2022-09-24T14:07:27;98644.13;;;19.00;64.17
54389;BME280;40975;50.390;8.640;2022-09-24T14:10:11;98631.75;;;19.31;63.87
54389;BME280;40975;50.390;8.640;2022-09-24T14:12:37;98638.75;;;19.32;64.74
54389;BME280;40975;50.390;8.640;2022-09-24T14:15:16;98643.22;;;19.13;65.17
54389;BME280;40975;50.390;8.640;2022-09-24T14:17:42;98631.56;;;18.73;64.06
54389;BME280;40975;50.390;8.640;2022-09-24T14:20:12;98635.56;;;18.37;65.96
54389;BME280;40975;50.390;8.640;2022-09-24T14:22:39;98637.25;;;18.31;64.25
54389;BME280;40975;50.390;8.640;2022-09-24T14:25:09;98639.53;;;18.14;63.66
54389;BME280;40975;50.390;8.640;2022-09-24T14:27:44;98634.34;;;18.20;67.01